sensor_id;sensor_type;location;lat;lon;timestamp;P1;durP1;ratioP1;P2;durP2;ratioP2
85506;SDS011;75915;41.988;21.460;2024-01-30T00:01:58;24.70;;;11.35;;
85506;SDS011;75915;41.988;21.460;2024-01-30T00:04:23;25.80;;;11.13;;
85506;SDS011;75915;41.988;21.460;2024-01-30T00:06:50;24.33;;;10.23;;
85506;SDS011;75915;41.988;21.460;2024-01-30T00:09:20;23.40;;;9.82;;
85506;SDS011;75915;41.988;21.460;2024-01-30T00:11:46;16.38;;;8.90;;
85506;SDS011;75915;41.988;21.460;2024-01-30T00:14:11;20.75;;;9.13;;
85506;SDS011;75915;41.988;21.460;2024-01-30T00:16:37;21.25;;;8.10;;
85506;SDS011;75915;41.988;21.460;2024-01-30T00:19:03;16.13;;;7.45;;
85506;SDS011;75915;41.988;21.460;2024-01-30T00:23:54;19.50;;;6.95;;
85506;SDS011;75915;41.988;21.460;2024-01-30T00:26:20;15.43;;;7.78;;
85506;SDS011;75915;41.988;21.460;2024-01-30T00:28:45;20.50;;;8.48;;
85506;SDS011;75915;41.988;21.460;2024-01-30T00:31:11;17.88;;;8.00;;
85506;SDS011;75915;41.988;21.460;2024-01-30T00:33:40;21.30;;;8.35;;
85506;SDS011;75915;41.988;21.460;2024-01-30T00:36:08;13.65;;;6.68;;
85506;SDS011;75915;41.988;21.460;2024-01-30T00:38:34;18.42;;;8.15;;
85506;SDS011;75915;41.988;21.460;2024-01-30T00:41:00;17.13;;;6.93;;
85506;SDS011;75915;41.988;21.460;2024-01-30T00:43:27;16.85;;;7.20;;
85506;SDS011;75915;41.988;21.460;2024-01-30T00:45:53;11.95;;;5.97;;
85506;SDS011;75915;41.988;21.460;2024-01-30T00:48:19;15.45;;;6.60;;
85506;SDS011;75915;41.988;21.460;2024-01-30T00:50:48;17.80;;;7.57;;
85506;SDS011;75915;41.988;21.460;2024-01-30T00:53:13;23.55;;;6.75;;
85506;SDS011;75915;41.988;21.460;2024-01-30T00:55:39;13.18;;;6.60;;
85506;SDS011;75915;41.988;21.460;2024-01-30T00:58:04;11.38;;;5.53;;
85506;SDS011;75915;41.988;21.460;2024-01-30T01:00:31;15.55;;;6.50;;
85506;SDS011;75915;41.988;21.460;2024-01-30T01:02:58;16.73;;;7.40;;
85506;SDS011;75915;41.988;21.460;2024-01-30T01:05:34;13.73;;;6.65;;
85506;SDS011;75915;41.988;21.460;2024-01-30T01:08:00;15.55;;;6.30;;
85506;SDS011;75915;41.988;21.460;2024-01-30T01:10:25;16.55;;;7.32;;
85506;SDS011;75915;41.988;21.460;2024-01-30T01:12:52;16.02;;;7.63;;
85506;SDS011;75915;41.988;21.460;2024-01-30T01:15:17;15.38;;;7.20;;
85506;SDS011;75915;41.988;21.460;2024-01-30T01:17:43;14.18;;;7.10;;
85506;SDS011;75915;41.988;21.460;2024-01-30T01:20:09;20.90;;;9.73;;
85506;SDS011;75915;41.988;21.460;2024-01-30T01:22:35;15.13;;;5.90;;
85506;SDS011;75915;41.988;21.460;2024-01-30T01:25:01;13.25;;;5.82;;
85506;SDS011;75915;41.988;21.460;2024-01-30T01:27:26;14.30;;;6.47;;
85506;SDS011;75915;41.988;21.460;2024-01-30T01:29:52;16.02;;;6.65;;
85506;SDS011;75915;41.988;21.460;2024-01-30T01:32:21;12.88;;;6.25;;
85506;SDS011;75915;41.988;21.460;2024-01-30T01:34:46;16.02;;;7.22;;
85506;SDS011;75915;41.988;21.460;2024-01-30T01:37:12;13.88;;;6.80;;
85506;SDS011;75915;41.988;21.460;2024-01-30T01:39:37;16.35;;;6.28;;
85506;SDS011;75915;41.988;21.460;2024-01-30T01:42:03;13.48;;;6.20;;
85506;SDS011;75915;41.988;21.460;2024-01-30T01:44:29;15.15;;;6.68;;
85506;SDS011;75915;41.988;21.460;2024-01-30T01:46:54;12.35;;;6.40;;
85506;SDS011;75915;41.988;21.460;2024-01-30T01:49:23;11.77;;;6.28;;
85506;SDS011;75915;41.988;21.460;2024-01-30T01:51:50;16.60;;;6.90;;
85506;SDS011;75915;41.988;21.460;2024-01-30T01:54:18;14.02;;;5.97;;
85506;SDS011;75915;41.988;21.460;2024-01-30T01:56:44;10.82;;;5.55;;
85506;SDS011;75915;41.988;21.460;2024-01-30T01:59:10;14.75;;;6.43;;
85506;SDS011;75915;41.988;21.460;2024-01-30T02:01:36;14.40;;;6.40;;
85506;SDS011;75915;41.988;21.460;2024-01-30T02:04:02;12.52;;;6.55;;
85506;SDS011;75915;41.988;21.460;2024-01-30T02:06:27;14.30;;;6.03;;
85506;SDS011;75915;41.988;21.460;2024-01-30T02:08:53;14.48;;;5.88;;
85506;SDS011;75915;41.988;21.460;2024-01-30T02:11:22;13.85;;;6.55;;
85506;SDS011;75915;41.988;21.460;2024-01-30T02:13:49;14.25;;;6.30;;
85506;SDS011;75915;41.988;21.460;2024-01-30T02:16:16;14.40;;;6.22;;
85506;SDS011;75915;41.988;21.460;2024-01-30T02:18:46;12.10;;;6.38;;
85506;SDS011;75915;41.988;21.460;2024-01-30T02:21:18;15.82;;;6.85;;
85506;SDS011;75915;41.988;21.460;2024-01-30T02:23:44;15.18;;;6.95;;
85506;SDS011;75915;41.988;21.460;2024-01-30T02:26:12;20.20;;;7.75;;
85506;SDS011;75915;41.988;21.460;2024-01-30T02:28:37;20.75;;;7.68;;
85506;SDS011;75915;41.988;21.460;2024-01-30T02:31:03;17.30;;;7.50;;
85506;SDS011;75915;41.988;21.460;2024-01-30T02:33:29;18.38;;;7.85;;
85506;SDS011;75915;41.988;21.460;2024-01-30T02:35:55;18.80;;;8.43;;
85506;SDS011;75915;41.988;21.460;2024-01-30T02:38:21;17.92;;;9.00;;
85506;SDS011;75915;41.988;21.460;2024-01-30T02:40:46;33.38;;;11.65;;
85506;SDS011;75915;41.988;21.460;2024-01-30T02:43:13;28.92;;;11.25;;
85506;SDS011;75915;41.988;21.460;2024-01-30T02:45:39;23.30;;;12.25;;
85506;SDS011;75915;41.988;21.460;2024-01-30T02:48:05;28.10;;;11.57;;
85506;SDS011;75915;41.988;21.460;2024-01-30T02:50:30;26.55;;;11.75;;
85506;SDS011;75915;41.988;21.460;2024-01-30T02:52:56;29.88;;;12.95;;
85506;SDS011;75915;41.988;21.460;2024-01-30T02:55:23;29.25;;;11.32;;
85506;SDS011;75915;41.988;21.460;2024-01-30T02:57:48;36.42;;;12.45;;
85506;SDS011;75915;41.988;21.460;2024-01-30T03:00:14;22.92;;;11.05;;
85506;SDS011;75915;41.988;21.460;2024-01-30T03:02:39;25.33;;;11.13;;
85506;SDS011;75915;41.988;21.460;2024-01-30T03:05:05;25.92;;;12.23;;
85506;SDS011;75915;41.988;21.460;2024-01-30T03:07:33;30.10;;;12.30;;
85506;SDS011;75915;41.988;21.460;2024-01-30T03:09:58;23.67;;;11.15;;
85506;SDS011;75915;41.988;21.460;2024-01-30T03:12:24;24.52;;;10.75;;
85506;SDS011;75915;41.988;21.460;2024-01-30T03:14:50;26.58;;;11.20;;
85506;SDS011;75915;41.988;21.460;2024-01-30T03:17:15;20.67;;;10.05;;
85506;SDS011;75915;41.988;21.460;2024-01-30T03:22:07;25.45;;;10.45;;
85506;SDS011;75915;41.988;21.460;2024-01-30T03:24:33;20.42;;;8.77;;
85506;SDS011;75915;41.988;21.460;2024-01-30T03:26:59;22.52;;;10.18;;
85506;SDS011;75915;41.988;21.460;2024-01-30T03:29:24;24.98;;;9.85;;
85506;SDS011;75915;41.988;21.460;2024-01-30T03:31:50;19.63;;;8.68;;
85506;SDS011;75915;41.988;21.460;2024-01-30T03:34:16;17.17;;;7.80;;
85506;SDS011;75915;41.988;21.460;2024-01-30T03:36:41;20.45;;;8.18;;
85506;SDS011;75915;41.988;21.460;2024-01-30T03:39:07;17.17;;;8.65;;
85506;SDS011;75915;41.988;21.460;2024-01-30T03:41:32;19.33;;;8.80;;
85506;SDS011;75915;41.988;21.460;2024-01-30T03:44:00;16.27;;;7.20;;
85506;SDS011;75915;41.988;21.460;2024-01-30T03:46:27;23.55;;;9.25;;
85506;SDS011;75915;41.988;21.460;2024-01-30T03:48:52;20.38;;;8.30;;
85506;SDS011;75915;41.988;21.460;2024-01-30T03:51:21;17.15;;;7.25;;
85506;SDS011;75915;41.988;21.460;2024-01-30T03:53:46;15.27;;;7.60;;
85506;SDS011;75915;41.988;21.460;2024-01-30T03:56:12;20.20;;;8.57;;
85506;SDS011;75915;41.988;21.460;2024-01-30T03:58:40;12.15;;;7.18;;
85506;SDS011;75915;41.988;21.460;2024-01-30T04:01:06;17.77;;;6.93;;
85506;SDS011;75915;41.988;21.460;2024-01-30T04:03:32;18.15;;;7.95;;
85506;SDS011;75915;41.988;21.460;2024-01-30T04:05:58;16.77;;;6.75;;
85506;SDS011;75915;41.988;21.460;2024-01-30T04:08:23;19.10;;;7.75;;
85506;SDS011;75915;41.988;21.460;2024-01-30T04:10:49;15.70;;;6.88;;
85506;SDS011;75915;41.988;21.460;2024-01-30T04:13:14;16.33;;;7.05;;
85506;SDS011;75915;41.988;21.460;2024-01-30T04:15:40;15.70;;;6.63;;
85506;SDS011;75915;41.988;21.460;2024-01-30T04:18:05;13.63;;;5.93;;
85506;SDS011;75915;41.988;21.460;2024-01-30T04:20:32;19.17;;;6.57;;
85506;SDS011;75915;41.988;21.460;2024-01-30T04:22:58;17.42;;;8.00;;
85506;SDS011;75915;41.988;21.460;2024-01-30T04:25:23;14.52;;;6.75;;
85506;SDS011;75915;41.988;21.460;2024-01-30T04:27:48;16.65;;;7.18;;
85506;SDS011;75915;41.988;21.460;2024-01-30T04:30:14;13.82;;;6.03;;
85506;SDS011;75915;41.988;21.460;2024-01-30T04:32:40;15.15;;;7.85;;
85506;SDS011;75915;41.988;21.460;2024-01-30T04:35:05;19.02;;;6.93;;
85506;SDS011;75915;41.988;21.460;2024-01-30T04:37:31;13.48;;;8.07;;
85506;SDS011;75915;41.988;21.460;2024-01-30T04:39:57;22.05;;;7.65;;
85506;SDS011;75915;41.988;21.460;2024-01-30T04:42:22;16.15;;;7.10;;
85506;SDS011;75915;41.988;21.460;2024-01-30T04:44:49;18.95;;;7.07;;
85506;SDS011;75915;41.988;21.460;2024-01-30T04:47:15;14.85;;;7.75;;
85506;SDS011;75915;41.988;21.460;2024-01-30T04:49:41;19.00;;;8.38;;
85506;SDS011;75915;41.988;21.460;2024-01-30T04:52:08;13.32;;;6.45;;
85506;SDS011;75915;41.988;21.460;2024-01-30T04:54:34;19.20;;;8.05;;
85506;SDS011;75915;41.988;21.460;2024-01-30T04:57:00;13.27;;;6.82;;
85506;SDS011;75915;41.988;21.460;2024-01-30T04:59:26;15.90;;;8.05;;
85506;SDS011;75915;41.988;21.460;2024-01-30T05:01:52;14.40;;;7.00;;
85506;SDS011;75915;41.988;21.460;2024-01-30T05:04:17;13.85;;;7.22;;
85506;SDS011;75915;41.988;21.460;2024-01-30T05:06:43;15.45;;;7.32;;
85506;SDS011;75915;41.988;21.460;2024-01-30T05:09:08;25.30;;;7.82;;
85506;SDS011;75915;41.988;21.460;2024-01-30T05:11:40;25.50;;;8.13;;
85506;SDS011;75915;41.988;21.460;2024-01-30T05:14:06;21.75;;;8.50;;
85506;SDS011;75915;41.988;21.460;2024-01-30T05:16:33;14.93;;;7.28;;
85506;SDS011;75915;41.988;21.460;2024-01-30T05:18:59;17.85;;;6.40;;
85506;SDS011;75915;41.988;21.460;2024-01-30T05:21:25;16.23;;;7.85;;
85506;SDS011;75915;41.988;21.460;2024-01-30T05:23:51;13.57;;;6.80;;
85506;SDS011;75915;41.988;21.460;2024-01-30T05:28:43;13.25;;;5.65;;
85506;SDS011;75915;41.988;21.460;2024-01-30T05:31:13;21.98;;;7.65;;
85506;SDS011;75915;41.988;21.460;2024-01-30T05:33:38;16.13;;;8.32;;
85506;SDS011;75915;41.988;21.460;2024-01-30T05:36:05;14.65;;;7.50;;
85506;SDS011;75915;41.988;21.460;2024-01-30T05:38:32;16.25;;;7.47;;
85506;SDS011;75915;41.988;21.460;2024-01-30T05:41:00;17.58;;;7.97;;
85506;SDS011;75915;41.988;21.460;2024-01-30T05:43:33;13.18;;;7.47;;
85506;SDS011;75915;41.988;21.460;2024-01-30T05:45:59;17.00;;;7.53;;
85506;SDS011;75915;41.988;21.460;2024-01-30T05:48:26;19.52;;;8.05;;
85506;SDS011;75915;41.988;21.460;2024-01-30T05:50:51;15.13;;;6.97;;
85506;SDS011;75915;41.988;21.460;2024-01-30T05:53:17;19.50;;;7.68;;
85506;SDS011;75915;41.988;21.460;2024-01-30T05:55:42;17.77;;;8.27;;
85506;SDS011;75915;41.988;21.460;2024-01-30T05:58:08;22.30;;;8.35;;
85506;SDS011;75915;41.988;21.460;2024-01-30T06:00:33;20.80;;;9.07;;
85506;SDS011;75915;41.988;21.460;2024-01-30T06:03:00;24.33;;;9.30;;
85506;SDS011;75915;41.988;21.460;2024-01-30T06:05:25;23.48;;;8.25;;
85506;SDS011;75915;41.988;21.460;2024-01-30T06:07:51;24.15;;;10.05;;
85506;SDS011;75915;41.988;21.460;2024-01-30T06:10:19;32.10;;;12.55;;
85506;SDS011;75915;41.988;21.460;2024-01-30T06:12:49;21.02;;;9.82;;
85506;SDS011;75915;41.988;21.460;2024-01-30T06:15:14;16.85;;;8.23;;
85506;SDS011;75915;41.988;21.460;2024-01-30T06:17:42;16.88;;;7.50;;
85506;SDS011;75915;41.988;21.460;2024-01-30T06:20:09;18.35;;;7.82;;
85506;SDS011;75915;41.988;21.460;2024-01-30T06:22:35;29.15;;;8.98;;
85506;SDS011;75915;41.988;21.460;2024-01-30T06:25:00;19.23;;;10.23;;
85506;SDS011;75915;41.988;21.460;2024-01-30T06:27:26;26.23;;;12.60;;
85506;SDS011;75915;41.988;21.460;2024-01-30T06:29:52;26.63;;;11.27;;
85506;SDS011;75915;41.988;21.460;2024-01-30T06:32:17;32.60;;;16.98;;
85506;SDS011;75915;41.988;21.460;2024-01-30T06:34:43;37.00;;;17.95;;
85506;SDS011;75915;41.988;21.460;2024-01-30T06:37:09;22.38;;;11.18;;
85506;SDS011;75915;41.988;21.460;2024-01-30T06:39:35;24.90;;;10.27;;
85506;SDS011;75915;41.988;21.460;2024-01-30T06:42:01;27.33;;;12.30;;
85506;SDS011;75915;41.988;21.460;2024-01-30T06:44:26;29.05;;;13.85;;
85506;SDS011;75915;41.988;21.460;2024-01-30T06:46:53;21.42;;;12.52;;
85506;SDS011;75915;41.988;21.460;2024-01-30T06:49:18;22.42;;;9.88;;
85506;SDS011;75915;41.988;21.460;2024-01-30T06:51:44;32.65;;;12.95;;
85506;SDS011;75915;41.988;21.460;2024-01-30T06:54:09;34.28;;;13.63;;
85506;SDS011;75915;41.988;21.460;2024-01-30T06:56:35;38.70;;;14.18;;
85506;SDS011;75915;41.988;21.460;2024-01-30T06:59:00;37.92;;;15.27;;
85506;SDS011;75915;41.988;21.460;2024-01-30T07:01:29;28.80;;;13.30;;
85506;SDS011;75915;41.988;21.460;2024-01-30T07:03:55;31.75;;;12.80;;
85506;SDS011;75915;41.988;21.460;2024-01-30T07:06:21;27.85;;;13.60;;
85506;SDS011;75915;41.988;21.460;2024-01-30T07:08:51;30.40;;;12.95;;
85506;SDS011;75915;41.988;21.460;2024-01-30T07:11:20;19.77;;;10.23;;
85506;SDS011;75915;41.988;21.460;2024-01-30T07:13:52;27.05;;;13.77;;
85506;SDS011;75915;41.988;21.460;2024-01-30T07:16:17;21.58;;;11.93;;
85506;SDS011;75915;41.988;21.460;2024-01-30T07:18:43;29.60;;;13.38;;
85506;SDS011;75915;41.988;21.460;2024-01-30T07:21:09;23.98;;;9.95;;
85506;SDS011;75915;41.988;21.460;2024-01-30T07:23:35;32.65;;;13.23;;
85506;SDS011;75915;41.988;21.460;2024-01-30T07:26:04;21.45;;;10.38;;
85506;SDS011;75915;41.988;21.460;2024-01-30T07:28:30;27.02;;;12.88;;
85506;SDS011;75915;41.988;21.460;2024-01-30T07:30:57;32.67;;;15.68;;
85506;SDS011;75915;41.988;21.460;2024-01-30T07:33:22;31.55;;;13.93;;
85506;SDS011;75915;41.988;21.460;2024-01-30T07:35:49;25.60;;;12.52;;
85506;SDS011;75915;41.988;21.460;2024-01-30T07:38:15;27.63;;;12.70;;
85506;SDS011;75915;41.988;21.460;2024-01-30T07:40:40;25.17;;;10.82;;
85506;SDS011;75915;41.988;21.460;2024-01-30T07:43:06;23.08;;;12.05;;
85506;SDS011;75915;41.988;21.460;2024-01-30T07:45:31;21.85;;;10.88;;
85506;SDS011;75915;41.988;21.460;2024-01-30T07:48:00;24.63;;;10.43;;
85506;SDS011;75915;41.988;21.460;2024-01-30T07:50:27;18.35;;;9.27;;
85506;SDS011;75915;41.988;21.460;2024-01-30T07:52:53;12.68;;;7.75;;
85506;SDS011;75915;41.988;21.460;2024-01-30T07:55:23;14.93;;;7.90;;
85506;SDS011;75915;41.988;21.460;2024-01-30T07:57:56;17.98;;;8.80;;
85506;SDS011;75915;41.988;21.460;2024-01-30T08:00:24;19.17;;;9.43;;
85506;SDS011;75915;41.988;21.460;2024-01-30T08:02:49;24.98;;;10.18;;
85506;SDS011;75915;41.988;21.460;2024-01-30T08:05:15;21.67;;;10.73;;
85506;SDS011;75915;41.988;21.460;2024-01-30T08:07:41;20.42;;;11.00;;
85506;SDS011;75915;41.988;21.460;2024-01-30T08:10:11;24.70;;;12.80;;
85506;SDS011;75915;41.988;21.460;2024-01-30T08:12:38;21.35;;;10.38;;
85506;SDS011;75915;41.988;21.460;2024-01-30T08:15:04;24.33;;;10.38;;
85506;SDS011;75915;41.988;21.460;2024-01-30T08:17:30;18.50;;;10.07;;
85506;SDS011;75915;41.988;21.460;2024-01-30T08:19:56;22.33;;;9.55;;
85506;SDS011;75915;41.988;21.460;2024-01-30T08:22:21;20.45;;;10.55;;
85506;SDS011;75915;41.988;21.460;2024-01-30T08:24:47;25.52;;;9.57;;
85506;SDS011;75915;41.988;21.460;2024-01-30T08:27:12;21.55;;;9.93;;
85506;SDS011;75915;41.988;21.460;2024-01-30T08:29:38;21.65;;;10.40;;
85506;SDS011;75915;41.988;21.460;2024-01-30T08:32:07;21.95;;;9.10;;
85506;SDS011;75915;41.988;21.460;2024-01-30T08:34:32;18.50;;;8.70;;
85506;SDS011;75915;41.988;21.460;2024-01-30T08:36:59;18.80;;;9.13;;
85506;SDS011;75915;41.988;21.460;2024-01-30T08:39:24;17.45;;;9.23;;
85506;SDS011;75915;41.988;21.460;2024-01-30T08:41:51;19.70;;;8.20;;
85506;SDS011;75915;41.988;21.460;2024-01-30T08:44:18;14.63;;;7.53;;
85506;SDS011;75915;41.988;21.460;2024-01-30T08:49:29;12.60;;;6.75;;
85506;SDS011;75915;41.988;21.460;2024-01-30T08:51:56;15.32;;;7.05;;
85506;SDS011;75915;41.988;21.460;2024-01-30T08:54:21;15.27;;;7.70;;
85506;SDS011;75915;41.988;21.460;2024-01-30T08:56:51;12.07;;;7.30;;
85506;SDS011;75915;41.988;21.460;2024-01-30T08:59:18;16.35;;;8.25;;
85506;SDS011;75915;41.988;21.460;2024-01-30T09:01:50;18.40;;;9.45;;
85506;SDS011;75915;41.988;21.460;2024-01-30T09:04:18;18.77;;;8.98;;
85506;SDS011;75915;41.988;21.460;2024-01-30T09:06:44;18.67;;;9.07;;
85506;SDS011;75915;41.988;21.460;2024-01-30T09:09:09;18.20;;;9.27;;
85506;SDS011;75915;41.988;21.460;2024-01-30T09:11:35;17.77;;;8.73;;
85506;SDS011;75915;41.988;21.460;2024-01-30T09:14:01;12.25;;;7.43;;
85506;SDS011;75915;41.988;21.460;2024-01-30T09:16:26;22.25;;;9.85;;
85506;SDS011;75915;41.988;21.460;2024-01-30T09:18:52;20.63;;;8.88;;
85506;SDS011;75915;41.988;21.460;2024-01-30T09:21:19;18.42;;;10.10;;
85506;SDS011;75915;41.988;21.460;2024-01-30T09:23:44;20.48;;;10.20;;
85506;SDS011;75915;41.988;21.460;2024-01-30T09:26:11;15.60;;;8.35;;
85506;SDS011;75915;41.988;21.460;2024-01-30T09:28:37;19.42;;;8.65;;
85506;SDS011;75915;41.988;21.460;2024-01-30T09:31:03;17.33;;;9.65;;
85506;SDS011;75915;41.988;21.460;2024-01-30T09:33:29;18.27;;;9.07;;
85506;SDS011;75915;41.988;21.460;2024-01-30T09:35:57;22.98;;;8.95;;
85506;SDS011;75915;41.988;21.460;2024-01-30T09:38:22;17.42;;;9.38;;
85506;SDS011;75915;41.988;21.460;2024-01-30T09:40:52;17.30;;;9.80;;
85506;SDS011;75915;41.988;21.460;2024-01-30T09:43:22;15.93;;;7.10;;
85506;SDS011;75915;41.988;21.460;2024-01-30T09:45:52;15.30;;;6.63;;
85506;SDS011;75915;41.988;21.460;2024-01-30T09:48:20;16.23;;;6.78;;
85506;SDS011;75915;41.988;21.460;2024-01-30T09:50:46;12.98;;;6.20;;
85506;SDS011;75915;41.988;21.460;2024-01-30T09:53:12;9.52;;;4.57;;
85506;SDS011;75915;41.988;21.460;2024-01-30T09:55:39;10.02;;;4.88;;
85506;SDS011;75915;41.988;21.460;2024-01-30T09:58:08;11.38;;;5.43;;
85506;SDS011;75915;41.988;21.460;2024-01-30T10:00:33;9.45;;;4.80;;
85506;SDS011;75915;41.988;21.460;2024-01-30T10:02:59;13.55;;;5.93;;
85506;SDS011;75915;41.988;21.460;2024-01-30T10:05:26;9.90;;;5.50;;
85506;SDS011;75915;41.988;21.460;2024-01-30T10:07:53;13.02;;;5.18;;
85506;SDS011;75915;41.988;21.460;2024-01-30T10:10:39;9.48;;;4.05;;
85506;SDS011;75915;41.988;21.460;2024-01-30T10:13:04;10.20;;;4.22;;
85506;SDS011;75915;41.988;21.460;2024-01-30T10:15:30;8.18;;;4.72;;
85506;SDS011;75915;41.988;21.460;2024-01-30T10:17:55;8.55;;;4.10;;
85506;SDS011;75915;41.988;21.460;2024-01-30T10:20:24;9.95;;;4.22;;
85506;SDS011;75915;41.988;21.460;2024-01-30T10:22:50;11.18;;;3.78;;
85506;SDS011;75915;41.988;21.460;2024-01-30T10:25:17;10.27;;;4.43;;
85506;SDS011;75915;41.988;21.460;2024-01-30T10:27:42;6.70;;;4.00;;
85506;SDS011;75915;41.988;21.460;2024-01-30T10:30:08;8.93;;;4.50;;
85506;SDS011;75915;41.988;21.460;2024-01-30T10:32:35;9.80;;;4.65;;
85506;SDS011;75915;41.988;21.460;2024-01-30T10:35:01;9.32;;;5.00;;
85506;SDS011;75915;41.988;21.460;2024-01-30T10:37:26;9.82;;;4.93;;
85506;SDS011;75915;41.988;21.460;2024-01-30T10:39:57;9.02;;;4.95;;
85506;SDS011;75915;41.988;21.460;2024-01-30T10:42:32;11.10;;;4.45;;
85506;SDS011;75915;41.988;21.460;2024-01-30T10:47:40;14.45;;;5.28;;
85506;SDS011;75915;41.988;21.460;2024-01-30T10:50:07;16.75;;;5.10;;
85506;SDS011;75915;41.988;21.460;2024-01-30T10:52:34;8.73;;;4.28;;
85506;SDS011;75915;41.988;21.460;2024-01-30T10:55:00;7.85;;;4.35;;
85506;SDS011;75915;41.988;21.460;2024-01-30T10:57:26;8.88;;;4.32;;
85506;SDS011;75915;41.988;21.460;2024-01-30T10:59:55;10.23;;;4.55;;
85506;SDS011;75915;41.988;21.460;2024-01-30T11:02:22;9.82;;;4.53;;
85506;SDS011;75915;41.988;21.460;2024-01-30T11:04:49;9.98;;;5.13;;
85506;SDS011;75915;41.988;21.460;2024-01-30T11:07:26;10.90;;;4.97;;
85506;SDS011;75915;41.988;21.460;2024-01-30T11:09:59;10.10;;;5.65;;
85506;SDS011;75915;41.988;21.460;2024-01-30T11:12:29;10.70;;;4.35;;
85506;SDS011;75915;41.988;21.460;2024-01-30T11:15:16;9.93;;;5.03;;
85506;SDS011;75915;41.988;21.460;2024-01-30T11:17:49;12.27;;;5.00;;
85506;SDS011;75915;41.988;21.460;2024-01-30T11:22:51;8.10;;;4.00;;
85506;SDS011;75915;41.988;21.460;2024-01-30T11:25:19;13.05;;;5.13;;
85506;SDS011;75915;41.988;21.460;2024-01-30T11:27:46;15.07;;;5.18;;
85506;SDS011;75915;41.988;21.460;2024-01-30T11:30:23;10.77;;;4.20;;
85506;SDS011;75915;41.988;21.460;2024-01-30T11:33:02;8.32;;;3.83;;
85506;SDS011;75915;41.988;21.460;2024-01-30T11:35:35;9.32;;;4.80;;
85506;SDS011;75915;41.988;21.460;2024-01-30T11:38:01;11.70;;;4.78;;
85506;SDS011;75915;41.988;21.460;2024-01-30T11:40:41;9.65;;;4.60;;
85506;SDS011;75915;41.988;21.460;2024-01-30T11:43:12;10.52;;;4.20;;
85506;SDS011;75915;41.988;21.460;2024-01-30T11:45:38;9.85;;;4.22;;
85506;SDS011;75915;41.988;21.460;2024-01-30T11:48:12;8.82;;;4.30;;
85506;SDS011;75915;41.988;21.460;2024-01-30T11:50:44;11.07;;;4.47;;
85506;SDS011;75915;41.988;21.460;2024-01-30T11:53:10;7.63;;;3.88;;
85506;SDS011;75915;41.988;21.460;2024-01-30T11:55:36;14.35;;;5.93;;
85506;SDS011;75915;41.988;21.460;2024-01-30T12:00:29;7.53;;;4.00;;
85506;SDS011;75915;41.988;21.460;2024-01-30T12:02:56;8.73;;;3.92;;
85506;SDS011;75915;41.988;21.460;2024-01-30T12:05:23;7.95;;;4.35;;
85506;SDS011;75915;41.988;21.460;2024-01-30T12:07:49;11.13;;;4.00;;
85506;SDS011;75915;41.988;21.460;2024-01-30T12:10:15;8.23;;;3.55;;
85506;SDS011;75915;41.988;21.460;2024-01-30T12:12:43;6.88;;;3.55;;
85506;SDS011;75915;41.988;21.460;2024-01-30T12:15:11;10.82;;;4.05;;
85506;SDS011;75915;41.988;21.460;2024-01-30T12:17:36;8.95;;;3.92;;
85506;SDS011;75915;41.988;21.460;2024-01-30T12:20:04;7.93;;;4.05;;
85506;SDS011;75915;41.988;21.460;2024-01-30T12:22:31;8.90;;;4.43;;
85506;SDS011;75915;41.988;21.460;2024-01-30T12:25:04;7.13;;;4.00;;
85506;SDS011;75915;41.988;21.460;2024-01-30T12:27:30;9.65;;;3.78;;
85506;SDS011;75915;41.988;21.460;2024-01-30T12:29:56;8.25;;;4.25;;
85506;SDS011;75915;41.988;21.460;2024-01-30T12:32:24;9.05;;;4.35;;
85506;SDS011;75915;41.988;21.460;2024-01-30T12:34:54;9.10;;;4.28;;
85506;SDS011;75915;41.988;21.460;2024-01-30T12:37:21;10.95;;;5.00;;
85506;SDS011;75915;41.988;21.460;2024-01-30T12:39:49;9.63;;;4.32;;
85506;SDS011;75915;41.988;21.460;2024-01-30T12:42:18;10.15;;;3.90;;
85506;SDS011;75915;41.988;21.460;2024-01-30T12:44:48;13.57;;;4.63;;
85506;SDS011;75915;41.988;21.460;2024-01-30T12:47:25;9.23;;;4.45;;
85506;SDS011;75915;41.988;21.460;2024-01-30T12:49:51;8.57;;;4.10;;
85506;SDS011;75915;41.988;21.460;2024-01-30T12:52:20;7.78;;;3.90;;
85506;SDS011;75915;41.988;21.460;2024-01-30T12:54:48;7.40;;;3.40;;
85506;SDS011;75915;41.988;21.460;2024-01-30T12:57:16;8.38;;;4.20;;
85506;SDS011;75915;41.988;21.460;2024-01-30T12:59:42;6.60;;;3.35;;
85506;SDS011;75915;41.988;21.460;2024-01-30T13:02:08;9.38;;;3.50;;
85506;SDS011;75915;41.988;21.460;2024-01-30T13:04:34;11.38;;;3.85;;
85506;SDS011;75915;41.988;21.460;2024-01-30T13:07:00;8.40;;;3.70;;
85506;SDS011;75915;41.988;21.460;2024-01-30T13:09:26;8.05;;;3.50;;
85506;SDS011;75915;41.988;21.460;2024-01-30T13:11:52;9.57;;;4.00;;
85506;SDS011;75915;41.988;21.460;2024-01-30T13:16:44;8.75;;;4.03;;
85506;SDS011;75915;41.988;21.460;2024-01-30T13:19:09;10.43;;;4.15;;
85506;SDS011;75915;41.988;21.460;2024-01-30T13:21:35;10.65;;;4.53;;
85506;SDS011;75915;41.988;21.460;2024-01-30T13:24:01;7.43;;;3.90;;
85506;SDS011;75915;41.988;21.460;2024-01-30T13:26:27;11.10;;;4.30;;
85506;SDS011;75915;41.988;21.460;2024-01-30T13:29:02;10.00;;;3.83;;
85506;SDS011;75915;41.988;21.460;2024-01-30T13:31:28;8.93;;;3.90;;
85506;SDS011;75915;41.988;21.460;2024-01-30T13:33:54;10.20;;;3.70;;
85506;SDS011;75915;41.988;21.460;2024-01-30T13:36:20;8.00;;;3.83;;
85506;SDS011;75915;41.988;21.460;2024-01-30T13:38:46;7.18;;;3.38;;
85506;SDS011;75915;41.988;21.460;2024-01-30T13:41:14;9.57;;;4.13;;
85506;SDS011;75915;41.988;21.460;2024-01-30T13:43:51;8.02;;;3.88;;
85506;SDS011;75915;41.988;21.460;2024-01-30T13:46:17;11.85;;;4.57;;
85506;SDS011;75915;41.988;21.460;2024-01-30T13:48:43;8.15;;;3.60;;
85506;SDS011;75915;41.988;21.460;2024-01-30T13:51:09;7.25;;;3.45;;
85506;SDS011;75915;41.988;21.460;2024-01-30T13:53:36;9.02;;;4.00;;
85506;SDS011;75915;41.988;21.460;2024-01-30T13:56:01;12.27;;;4.47;;
85506;SDS011;75915;41.988;21.460;2024-01-30T13:58:27;7.85;;;3.50;;
85506;SDS011;75915;41.988;21.460;2024-01-30T14:00:52;11.73;;;4.40;;
85506;SDS011;75915;41.988;21.460;2024-01-30T14:03:20;17.35;;;4.13;;
85506;SDS011;75915;41.988;21.460;2024-01-30T14:05:46;9.38;;;4.10;;
85506;SDS011;75915;41.988;21.460;2024-01-30T14:08:11;14.52;;;3.95;;
85506;SDS011;75915;41.988;21.460;2024-01-30T14:10:41;10.63;;;3.70;;
85506;SDS011;75915;41.988;21.460;2024-01-30T14:13:17;8.85;;;3.90;;
85506;SDS011;75915;41.988;21.460;2024-01-30T14:15:51;9.02;;;3.88;;
85506;SDS011;75915;41.988;21.460;2024-01-30T14:18:17;7.97;;;3.95;;
85506;SDS011;75915;41.988;21.460;2024-01-30T14:20:43;9.23;;;3.95;;
85506;SDS011;75915;41.988;21.460;2024-01-30T14:23:10;11.05;;;4.45;;
85506;SDS011;75915;41.988;21.460;2024-01-30T14:25:36;14.07;;;3.85;;
85506;SDS011;75915;41.988;21.460;2024-01-30T14:30:27;8.70;;;3.92;;
85506;SDS011;75915;41.988;21.460;2024-01-30T14:32:53;12.20;;;4.28;;
85506;SDS011;75915;41.988;21.460;2024-01-30T14:35:19;15.50;;;4.18;;
85506;SDS011;75915;41.988;21.460;2024-01-30T14:37:45;6.65;;;3.28;;
85506;SDS011;75915;41.988;21.460;2024-01-30T14:40:10;6.28;;;3.70;;
85506;SDS011;75915;41.988;21.460;2024-01-30T14:42:36;10.02;;;3.78;;